createdAt,value
2019-04-20T00:00:46.078Z,44.71
2019-04-20T00:01:40.962Z,45.35
2019-04-20T00:02:39.888Z,45.43
2019-04-20T00:03:42.328Z,46.04
2019-04-20T00:04:41.139Z,46.07
2019-04-20T00:05:39.446Z,46.35
2019-04-20T00:06:46.270Z,46.58
2019-04-20T00:07:41.751Z,46.58
2019-04-20T00:08:42.355Z,46.58
2019-04-20T00:09:41.696Z,46.68
2019-04-20T00:10:47.386Z,46.56
2019-04-20T00:11:50.206Z,46.66
2019-04-20T00:12:53.390Z,46.56
2019-04-20T00:13:47.727Z,46.68
2019-04-20T00:14:41.300Z,46.35
2019-04-20T00:15:39.326Z,46.86
2019-04-20T00:16:39.923Z,46.97
2019-04-20T00:17:47.630Z,46.76
2019-04-20T00:18:46.590Z,46.66
2019-04-20T00:19:45.621Z,46.86
2019-04-20T00:20:40.724Z,46.56
2019-04-20T00:21:47.362Z,46.97
2019-04-20T00:22:46.926Z,46.66
2019-04-20T00:23:43.843Z,46.66
2019-04-20T00:24:41.073Z,46.76
2019-04-20T00:25:53.195Z,47.38
2019-04-20T00:27:59.610Z,47.40
2019-04-20T00:29:00.175Z,47.81
2019-04-20T00:29:54.238Z,47.09
2019-04-20T00:30:58.744Z,47.19
2019-04-20T00:31:55.533Z,47.91
2019-04-20T00:32:53.228Z,47.91
2019-04-20T00:33:52.838Z,47.81
2019-04-20T00:34:43.639Z,48.11
2019-04-20T00:35:40.229Z,47.50
2019-04-20T00:36:39.304Z,47.63
2019-04-20T00:37:40.214Z,48.11
2019-04-20T00:38:45.291Z,47.50
2019-04-20T00:39:40.570Z,48.44
2019-04-20T00:40:39.283Z,48.75
2019-04-20T00:41:44.159Z,48.24
2019-04-20T00:42:46.822Z,48.85
2019-04-20T00:43:42.054Z,48.85
2019-04-20T00:44:41.317Z,49.06
2019-04-20T00:45:46.757Z,49.06
2019-04-20T00:46:53.482Z,49.47
2019-04-20T00:47:48.969Z,49.26
2019-04-20T00:48:48.386Z,49.26
2019-04-20T00:49:55.098Z,48.85
2019-04-20T00:50:57.215Z,48.65
2019-04-20T00:52:05.170Z,49.39
2019-04-20T00:52:54.263Z,49.69
2019-04-20T00:53:44.947Z,49.59
2019-04-20T00:54:41.141Z,49.67
2019-04-20T00:55:39.877Z,49.59
2019-04-20T00:56:39.297Z,49.59
2019-04-20T00:57:47.687Z,49.69
2019-04-20T00:58:54.749Z,49.49
2019-04-20T01:00:03.293Z,50.01
2019-04-20T01:01:03.733Z,50.62
2019-04-20T01:02:02.267Z,50.01
2019-04-20T01:02:50.767Z,49.49
2019-04-20T01:03:52.685Z,50.44
2019-04-20T01:04:58.035Z,50.44
2019-04-20T01:06:02.238Z,50.54
2019-04-20T01:06:54.158Z,50.95
2019-04-20T01:07:46.803Z,50.52
2019-04-20T01:08:40.202Z,50.23
2019-04-20T01:09:39.183Z,50.23
2019-04-20T01:10:44.793Z,50.21
2019-04-20T01:11:43.242Z,50.21
2019-04-20T01:12:41.006Z,50.31
2019-04-20T01:13:46.912Z,51.13
2019-04-20T01:14:46.628Z,51.23
2019-04-20T01:15:48.842Z,51.23
2019-04-20T01:16:47.074Z,50.82
2019-04-20T01:17:41.595Z,51.13
2019-04-20T01:18:38.621Z,51.03
2019-04-20T01:19:38.591Z,50.72
2019-04-20T01:20:38.931Z,51.03
2019-04-20T01:21:38.564Z,51.34
2019-04-20T01:22:45.488Z,51.34
2019-04-20T01:23:46.117Z,52.05
2019-04-20T01:24:43.799Z,50.93
2019-04-20T01:25:43.406Z,50.82
2019-04-20T01:26:46.874Z,51.44
2019-04-20T01:27:59.098Z,51.34
2019-04-20T01:28:57.713Z,51.34
2019-04-20T01:29:47.807Z,51.54
2019-04-20T01:30:44.442Z,51.44
2019-04-20T01:31:55.741Z,51.26
2019-04-20T01:32:57.631Z,51.44
2019-04-20T01:33:50.636Z,51.26
2019-04-20T01:34:52.505Z,51.36
2019-04-20T01:35:53.570Z,51.77
2019-04-20T01:36:55.666Z,51.56
2019-04-20T01:37:57.419Z,52.39
2019-04-20T01:38:52.273Z,52.39
2019-04-20T01:39:45.197Z,52.28
2019-04-20T01:40:40.215Z,52.59
2019-04-20T01:41:39.305Z,52.59
2019-04-20T01:42:38.393Z,52.69
2019-04-20T01:43:39.505Z,52.39
2019-04-20T01:44:43.399Z,52.49
2019-04-20T01:45:42.405Z,51.98
2019-04-20T01:46:39.113Z,53.20
2019-04-20T01:47:45.595Z,52.67
2019-04-20T01:48:41.473Z,52.59
2019-04-20T01:49:39.054Z,52.49
2019-04-20T01:50:50.827Z,52.77
2019-04-20T01:51:48.266Z,52.28
2019-04-20T01:52:50.714Z,52.39
2019-04-20T01:53:50.376Z,52.69
2019-04-20T01:55:02.694Z,51.77
2019-04-20T01:55:50.672Z,52.39
2019-04-20T01:56:53.181Z,52.59
2019-04-20T01:58:00.592Z,52.39
2019-04-20T01:58:58.212Z,52.18
2019-04-20T01:59:52.001Z,52.28
2019-04-20T02:00:42.117Z,52.41
2019-04-20T02:01:42.383Z,52.80
2019-04-20T02:02:45.917Z,52.80
2019-04-20T02:03:43.966Z,53.41
2019-04-20T02:04:45.191Z,53.03
2019-04-20T02:05:40.721Z,53.54
2019-04-20T02:06:43.385Z,53.54
2019-04-20T02:07:44.575Z,53.12
2019-04-20T02:08:40.083Z,53.64
2019-04-20T02:09:45.790Z,53.95
2019-04-20T02:10:45.994Z,53.95
2019-04-20T02:11:42.686Z,53.54
2019-04-20T02:12:40.860Z,53.85
2019-04-20T02:13:44.434Z,53.85
2019-04-20T02:14:46.303Z,53.74
2019-04-20T02:15:46.435Z,53.74
2019-04-20T02:16:44.004Z,54.25
2019-04-20T02:17:46.127Z,53.85
2019-04-20T02:18:57.995Z,54.36
2019-04-20T02:19:59.768Z,54.59
2019-04-20T02:20:59.651Z,54.59
2019-04-20T02:21:55.462Z,54.66
2019-04-20T02:22:55.323Z,54.28
2019-04-20T02:23:47.985Z,53.66
2019-04-20T02:24:38.863Z,54.28
2019-04-20T02:25:37.848Z,54.28
2019-04-20T02:26:38.870Z,54.08
2019-04-20T02:27:45.447Z,54.79
2019-04-20T02:29:05.675Z,54.90
2019-04-20T02:29:58.506Z,55.21
2019-04-20T02:31:15.955Z,55.30
2019-04-20T02:32:19.824Z,55.33
2019-04-20T02:33:18.338Z,55.74
2019-04-20T02:35:14.139Z,55.21
2019-04-20T02:36:27.620Z,55.33
2019-04-20T02:37:14.033Z,55.64
2019-04-20T02:40:13.058Z,55.54
2019-04-20T02:41:11.459Z,56.36
2019-04-20T02:43:28.435Z,55.33
2019-04-20T02:44:14.337Z,55.64
2019-04-20T02:45:18.749Z,55.57
2019-04-20T02:46:06.489Z,55.87
2019-04-20T02:47:14.091Z,55.98
2019-04-20T02:49:10.130Z,56.08
2019-04-20T02:50:07.000Z,56.28
2019-04-20T02:52:06.735Z,56.28
2019-04-20T02:55:12.498Z,56.49
2019-04-20T02:56:06.588Z,56.90
2019-04-20T02:57:10.302Z,57.10
2019-04-20T02:58:05.192Z,56.93
2019-04-20T02:59:30.817Z,56.90
2019-04-20T03:00:08.963Z,57.00
2019-04-20T03:00:52.674Z,56.38
2019-04-20T03:01:53.491Z,56.38
2019-04-20T03:02:47.367Z,56.70
2019-04-20T03:03:39.063Z,57.23
2019-04-20T03:04:42.451Z,57.10
2019-04-20T03:05:41.173Z,56.82
2019-04-20T03:06:53.825Z,56.82
2019-04-20T03:07:55.263Z,56.72
2019-04-20T03:08:56.594Z,56.62
2019-04-20T03:09:54.250Z,56.72
2019-04-20T03:11:03.640Z,57.64
2019-04-20T03:12:13.670Z,57.75
2019-04-20T03:12:50.730Z,58.06
2019-04-20T03:13:54.591Z,58.26
2019-04-20T03:14:48.748Z,58.47
2019-04-20T03:15:55.030Z,57.95
2019-04-20T03:16:51.820Z,58.47
2019-04-20T03:17:51.255Z,58.36
2019-04-20T03:18:50.521Z,58.36
2019-04-20T03:19:48.723Z,58.29
2019-04-20T03:20:53.685Z,58.39
2019-04-20T03:21:58.296Z,58.80
2019-04-20T03:23:13.111Z,58.91
2019-04-20T03:24:00.936Z,58.80
2019-04-20T03:24:54.032Z,58.80
2019-04-20T03:25:55.907Z,58.70
2019-04-20T03:26:50.565Z,59.14
2019-04-20T03:27:46.185Z,59.01
2019-04-20T03:28:51.516Z,59.55
2019-04-20T03:29:52.350Z,59.75
2019-04-20T03:31:37.100Z,59.86
2019-04-20T03:33:17.866Z,60.47
2019-04-20T03:34:13.003Z,60.78
2019-04-20T03:35:17.439Z,60.78
2019-04-20T03:35:58.560Z,60.17
2019-04-20T03:37:25.113Z,60.37
2019-04-20T03:37:55.597Z,60.30
2019-04-20T03:38:47.942Z,61.09
2019-04-20T03:39:47.676Z,60.58
2019-04-20T03:40:46.488Z,60.71
2019-04-20T03:41:38.468Z,60.30
2019-04-20T03:42:33.012Z,60.71
2019-04-20T03:43:31.255Z,61.22
2019-04-20T03:44:34.019Z,61.12
2019-04-20T03:45:37.446Z,61.53
2019-04-20T03:46:42.003Z,61.22
2019-04-20T03:47:42.497Z,62.05
2019-04-20T03:48:50.765Z,61.94
2019-04-20T03:49:54.797Z,61.94
2019-04-20T03:50:53.265Z,62.35
2019-04-20T03:51:53.415Z,62.05
2019-04-20T03:52:57.751Z,62.59
2019-04-20T03:53:50.287Z,62.59
2019-04-20T03:54:43.499Z,62.46
2019-04-20T03:55:51.610Z,63.21
2019-04-20T03:56:49.213Z,62.79
2019-04-20T03:57:51.671Z,63.72
2019-04-20T03:58:47.233Z,63.21
2019-04-20T03:59:53.313Z,63.42
2019-04-20T04:00:51.733Z,63.10
2019-04-20T04:03:01.533Z,63.72
2019-04-20T04:03:58.790Z,63.72
2019-04-20T04:04:53.623Z,64.24
2019-04-20T04:05:46.898Z,63.82
2019-04-20T04:06:41.638Z,63.72
2019-04-20T04:07:38.687Z,64.14
2019-04-20T04:08:38.057Z,64.03
2019-04-20T04:09:39.792Z,64.14
2019-04-20T04:10:48.515Z,64.03
2019-04-20T04:11:48.527Z,64.03
2019-04-20T04:12:37.126Z,64.14
2019-04-20T04:13:31.452Z,64.44
2019-04-20T04:14:30.912Z,64.54
2019-04-20T04:15:31.690Z,64.24
2019-04-20T04:16:38.383Z,64.37
2019-04-20T04:17:38.374Z,64.24
2019-04-20T04:18:38.624Z,64.34
2019-04-20T04:19:36.656Z,64.54
2019-04-20T04:20:38.778Z,64.54
2019-04-20T04:21:49.794Z,64.75
2019-04-20T04:22:50.021Z,65.78
2019-04-20T04:23:51.467Z,65.16
2019-04-20T04:24:40.648Z,64.96
2019-04-20T04:25:50.079Z,65.26
2019-04-20T04:26:47.436Z,65.58
2019-04-20T04:27:52.209Z,66.40
2019-04-20T04:28:47.491Z,65.78
2019-04-20T04:29:52.379Z,65.89
2019-04-20T04:30:47.579Z,65.99
2019-04-20T04:32:00.361Z,66.50
2019-04-20T04:33:12.442Z,66.19
2019-04-20T04:33:55.551Z,66.19
2019-04-20T04:34:48.952Z,66.30
2019-04-20T04:35:48.181Z,66.40
2019-04-20T04:36:54.008Z,66.50
2019-04-20T04:37:48.526Z,66.50
2019-04-20T04:38:53.493Z,66.61
2019-04-20T04:39:56.324Z,66.71
2019-04-20T04:41:01.980Z,66.50
2019-04-20T04:42:03.663Z,66.71
2019-04-20T04:42:52.308Z,66.30
2019-04-20T04:43:51.080Z,67.12
2019-04-20T04:44:43.277Z,66.71
2019-04-20T04:45:33.390Z,66.50
2019-04-20T04:46:34.833Z,67.02
2019-04-20T04:47:32.672Z,66.91
2019-04-20T04:48:35.594Z,67.02
2019-04-20T04:49:36.537Z,66.91
2019-04-20T04:50:32.946Z,66.91
2019-04-20T04:51:42.691Z,66.81
2019-04-20T04:52:44.722Z,66.91
2019-04-20T04:53:44.241Z,66.91
2019-04-20T04:54:41.020Z,66.91
2019-04-20T04:55:39.434Z,66.71
2019-04-20T04:56:32.014Z,66.81
2019-04-20T04:57:30.534Z,66.81
2019-04-20T04:58:31.826Z,66.61
2019-04-20T04:59:31.620Z,67.43
2019-04-20T05:00:33.150Z,68.05
2019-04-20T05:01:33.641Z,67.84
2019-04-20T05:02:40.432Z,67.74
2019-04-20T05:03:54.008Z,68.05
2019-04-20T05:04:58.417Z,67.63
2019-04-20T05:05:49.371Z,67.84
2019-04-20T05:06:43.443Z,68.05
2019-04-20T05:07:46.730Z,67.74
2019-04-20T05:08:41.317Z,67.74
2019-04-20T05:09:31.792Z,68.25
2019-04-20T05:10:30.774Z,68.25
2019-04-20T05:11:30.283Z,68.46
2019-04-20T05:12:33.411Z,68.35
2019-04-20T05:13:37.080Z,68.35
2019-04-20T05:14:43.252Z,68.25
2019-04-20T05:15:46.209Z,68.77
2019-04-20T05:16:51.280Z,68.25
2019-04-20T05:17:48.364Z,68.35
2019-04-20T05:19:11.587Z,68.12
2019-04-20T05:19:55.263Z,68.32
2019-04-20T05:20:54.648Z,68.12
2019-04-20T05:21:58.653Z,68.32
2019-04-20T05:22:50.981Z,68.43
2019-04-20T05:23:41.407Z,68.22
2019-04-20T05:24:55.265Z,68.22
2019-04-20T05:26:57.928Z,68.53
2019-04-20T05:27:51.216Z,68.32
2019-04-20T05:28:43.908Z,68.32
2019-04-20T05:29:34.541Z,68.43
2019-04-20T05:30:33.630Z,68.22
2019-04-20T05:31:42.352Z,68.50
2019-04-20T05:32:44.090Z,68.60
2019-04-20T05:33:59.666Z,68.08
2019-04-20T05:34:58.396Z,68.08
2019-04-20T05:35:52.001Z,68.08
2019-04-20T05:36:49.334Z,68.40
2019-04-20T05:38:08.087Z,68.29
2019-04-20T05:38:58.223Z,68.26
2019-04-20T05:39:50.451Z,67.78
2019-04-20T05:40:51.431Z,68.37
2019-04-20T05:41:48.614Z,67.85
2019-04-20T05:42:54.485Z,67.75
2019-04-20T05:43:49.692Z,67.75
2019-04-20T05:44:54.194Z,67.82
2019-04-20T05:45:45.077Z,67.71
2019-04-20T05:46:47.682Z,67.30
2019-04-20T05:47:48.434Z,67.30
2019-04-20T05:48:50.950Z,66.79
2019-04-20T05:49:46.805Z,66.69
2019-04-20T05:50:52.137Z,66.58
2019-04-20T05:51:49.841Z,66.86
2019-04-20T05:52:56.160Z,66.14
2019-04-20T05:53:50.400Z,66.11
2019-04-20T05:54:51.230Z,65.91
2019-04-20T05:55:49.250Z,65.16
2019-04-20T05:56:53.883Z,65.09
2019-04-20T05:57:56.717Z,65.06
2019-04-20T05:58:50.818Z,65.19
2019-04-20T05:59:55.997Z,65.16
2019-04-20T06:00:55.471Z,65.06
2019-04-20T06:02:02.165Z,64.85
2019-04-20T06:02:52.396Z,64.95
2019-04-20T06:03:48.807Z,65.06
2019-04-20T06:05:02.250Z,64.92
2019-04-20T06:05:57.869Z,64.92
2019-04-20T06:06:52.989Z,64.92
2019-04-20T06:07:48.870Z,64.82
2019-04-20T06:08:59.916Z,64.31
2019-04-20T06:09:55.910Z,64.31
2019-04-20T06:10:50.799Z,64.92
2019-04-20T06:12:02.971Z,64.31
2019-04-20T06:12:51.747Z,64.07
2019-04-20T06:13:44.296Z,63.97
2019-04-20T06:14:46.801Z,63.73
2019-04-20T06:15:46.727Z,63.64
2019-04-20T06:16:56.843Z,63.64
2019-04-20T06:17:49.336Z,63.60
2019-04-20T06:18:40.225Z,63.73
2019-04-20T06:19:54.621Z,62.78
2019-04-20T06:20:52.561Z,63.29
2019-04-20T06:21:57.479Z,62.37
2019-04-20T06:22:52.562Z,62.14
2019-04-20T06:24:53.142Z,62.35
2019-04-20T06:26:11.107Z,61.83
2019-04-20T06:26:54.045Z,61.83
2019-04-20T06:27:52.748Z,61.73
2019-04-20T06:28:48.997Z,62.11
2019-04-20T06:29:45.569Z,61.70
2019-04-20T06:30:45.556Z,61.60
2019-04-20T06:31:51.815Z,61.40
2019-04-20T06:32:52.325Z,61.29
2019-04-20T06:34:19.854Z,60.88
2019-04-20T06:34:51.873Z,59.76
2019-04-20T06:36:10.270Z,59.96
2019-04-20T06:36:49.837Z,60.14
2019-04-20T06:38:03.050Z,60.35
2019-04-20T06:39:02.227Z,60.44
2019-04-20T06:39:55.977Z,60.35
2019-04-20T06:40:59.397Z,59.83
2019-04-20T06:42:08.128Z,59.19
2019-04-20T06:42:53.476Z,59.50
2019-04-20T06:43:55.749Z,59.37
2019-04-20T06:44:53.605Z,59.67
2019-04-20T06:45:56.790Z,60.28
2019-04-20T06:46:58.766Z,58.75
2019-04-20T06:47:52.119Z,58.11
2019-04-20T06:48:51.705Z,58.22
2019-04-20T06:49:48.663Z,58.93
2019-04-20T06:50:52.493Z,58.01
2019-04-20T06:51:52.961Z,57.98
2019-04-20T06:52:45.284Z,57.68
2019-04-20T06:53:47.517Z,57.57
2019-04-20T06:54:48.562Z,57.45
2019-04-20T06:55:57.383Z,57.65
2019-04-20T06:56:54.057Z,57.45
2019-04-20T06:57:56.296Z,57.21
2019-04-20T06:58:49.859Z,56.71
2019-04-20T06:59:47.390Z,55.89
2019-04-20T07:00:53.446Z,56.10
2019-04-20T07:01:56.373Z,55.97
2019-04-20T07:02:49.008Z,55.35
2019-04-20T07:04:00.650Z,55.15
2019-04-20T07:04:58.102Z,54.51
2019-04-20T07:05:54.673Z,55.02
2019-04-20T07:07:00.506Z,54.90
2019-04-20T07:07:54.717Z,54.92
2019-04-20T07:10:05.171Z,54.79
2019-04-20T07:11:10.958Z,53.78
2019-04-20T07:11:50.494Z,53.88
2019-04-20T07:12:46.995Z,54.05
2019-04-20T07:13:41.276Z,53.14
2019-04-20T07:14:43.955Z,53.24
2019-04-20T07:15:48.709Z,53.04
2019-04-20T07:16:53.081Z,53.24
2019-04-20T07:18:50.670Z,53.39
2019-04-20T07:19:44.480Z,52.58
2019-04-20T07:20:55.625Z,52.89
2019-04-20T07:22:02.274Z,52.56
2019-04-20T07:22:52.438Z,51.95
2019-04-20T07:23:55.847Z,51.75
2019-04-20T07:25:05.409Z,52.05
2019-04-20T07:26:04.914Z,51.11
2019-04-20T07:26:49.284Z,51.11
2019-04-20T07:27:53.560Z,51.62
2019-04-20T07:28:53.023Z,50.90
2019-04-20T07:29:51.918Z,51.01
2019-04-20T07:30:52.050Z,51.62
2019-04-20T07:31:48.481Z,50.78
2019-04-20T07:33:04.442Z,50.07
2019-04-20T07:33:52.118Z,50.35
2019-04-20T07:34:51.534Z,49.56
2019-04-20T07:35:50.719Z,49.84
2019-04-20T07:37:04.801Z,48.93
2019-04-20T07:38:54.234Z,49.52
2019-04-20T07:39:55.821Z,49.01
2019-04-20T07:40:50.631Z,49.31
2019-04-20T07:41:57.251Z,49.72
2019-04-20T07:42:52.424Z,49.11
2019-04-20T07:43:59.598Z,49.19
2019-04-20T07:44:55.461Z,49.69
2019-04-20T07:45:53.798Z,49.16
2019-04-20T07:47:02.844Z,48.35
2019-04-20T07:48:01.656Z,48.66
2019-04-20T07:48:50.397Z,48.35
2019-04-20T07:49:48.329Z,48.96
2019-04-20T07:50:40.819Z,48.96
2019-04-20T07:51:36.611Z,48.15
2019-04-20T07:52:38.460Z,47.85
2019-04-20T07:53:51.354Z,47.14
2019-04-20T07:55:12.367Z,48.15
2019-04-20T07:56:05.021Z,47.14
2019-04-20T07:56:47.857Z,47.34
2019-04-20T07:58:04.864Z,47.72
2019-04-20T07:58:38.749Z,47.92
2019-04-20T07:59:46.874Z,47.34
2019-04-20T08:01:04.212Z,47.75
2019-04-20T08:02:01.219Z,48.05
2019-04-20T08:02:57.296Z,47.92
2019-04-20T08:03:50.391Z,47.75
2019-04-20T08:04:47.623Z,47.42
2019-04-20T08:05:41.873Z,48.03
2019-04-20T08:06:37.897Z,47.60
2019-04-20T08:07:42.664Z,46.91
2019-04-20T08:08:43.999Z,47.09
2019-04-20T08:09:39.369Z,47.30
2019-04-20T08:10:38.387Z,47.30
2019-04-20T08:12:55.607Z,47.19
2019-04-20T08:13:54.960Z,46.69
2019-04-20T08:14:56.961Z,46.59
2019-04-20T08:17:08.265Z,47.17
2019-04-20T08:17:56.935Z,46.48
2019-04-20T08:18:51.344Z,46.87
2019-04-20T08:19:46.766Z,47.17
2019-04-20T08:20:52.801Z,46.67
2019-04-20T08:21:48.091Z,46.56
2019-04-20T08:22:56.953Z,46.04
2019-04-20T08:23:52.154Z,46.04
2019-04-20T08:24:44.971Z,46.84
2019-04-20T08:25:44.604Z,46.44
2019-04-20T08:26:36.002Z,46.01
2019-04-20T08:27:29.725Z,45.91
2019-04-20T08:28:36.082Z,45.51
2019-04-20T08:29:42.799Z,44.40
2019-04-20T08:30:42.285Z,45.51
2019-04-20T08:31:40.635Z,45.71
2019-04-20T08:32:48.393Z,45.49
2019-04-20T08:33:55.102Z,44.78
2019-04-20T08:34:50.699Z,45.39
2019-04-20T08:35:52.446Z,45.47
2019-04-20T08:36:53.451Z,44.35
2019-04-20T08:38:02.261Z,45.06
2019-04-20T08:39:58.426Z,44.84
2019-04-20T08:40:47.861Z,44.64
2019-04-20T08:42:14.552Z,44.23
2019-04-20T08:43:00.568Z,44.64
2019-04-20T08:44:18.766Z,43.93
2019-04-20T08:45:51.124Z,43.51
2019-04-20T08:46:59.678Z,43.71
2019-04-20T08:47:51.407Z,44.21
2019-04-20T08:48:50.864Z,43.51
2019-04-20T08:49:52.249Z,43.80
2019-04-20T08:50:54.485Z,43.59
2019-04-20T08:51:59.990Z,43.48
2019-04-20T08:53:50.733Z,43.18
2019-04-20T08:54:41.452Z,43.26
2019-04-20T08:55:45.321Z,43.69
2019-04-20T08:56:36.009Z,43.08
2019-04-20T08:57:29.279Z,43.48
2019-04-20T08:58:27.684Z,43.08
2019-04-20T08:59:28.918Z,43.69
2019-04-20T09:00:33.292Z,43.89
2019-04-20T09:01:32.712Z,44.59
2019-04-20T09:02:28.658Z,44.39
2019-04-20T09:03:33.715Z,43.69
2019-04-20T09:04:38.369Z,43.97
2019-04-20T09:05:40.921Z,43.79
2019-04-20T09:06:41.496Z,43.97
2019-04-20T09:07:32.020Z,43.97
2019-04-20T09:08:42.302Z,42.46
2019-04-20T09:09:49.555Z,42.05
2019-04-20T09:10:49.177Z,42.44
2019-04-20T09:11:49.560Z,42.64
2019-04-20T09:12:45.379Z,42.03
2019-04-20T09:13:38.601Z,42.66
2019-04-20T09:14:29.940Z,42.24
2019-04-20T09:15:27.900Z,41.42
2019-04-20T09:16:38.072Z,42.03
2019-04-20T09:17:35.647Z,42.61
2019-04-20T09:18:38.883Z,41.71
2019-04-20T09:19:36.809Z,41.71
2019-04-20T09:20:36.226Z,41.79
2019-04-20T09:21:39.138Z,41.49
2019-04-20T09:22:40.526Z,41.59
2019-04-20T09:23:40.908Z,40.28
2019-04-20T09:24:52.763Z,40.78
2019-04-20T09:26:48.959Z,41.39
2019-04-20T09:27:34.826Z,40.28
2019-04-20T09:28:38.447Z,41.59
2019-04-20T09:29:37.157Z,41.27
2019-04-20T09:30:39.455Z,40.36
2019-04-20T09:31:39.260Z,41.17
2019-04-20T09:32:43.953Z,40.46
2019-04-20T09:33:48.697Z,41.25
2019-04-20T09:34:46.567Z,41.55
2019-04-20T09:35:48.637Z,40.44
2019-04-20T09:36:42.289Z,39.32
2019-04-20T09:37:47.374Z,40.12
2019-04-20T09:38:40.864Z,40.12
2019-04-20T09:39:36.171Z,39.72
2019-04-20T09:40:44.918Z,38.40
2019-04-20T09:41:47.151Z,38.49
2019-04-20T09:42:28.186Z,38.79
2019-04-20T09:43:28.076Z,38.90
2019-04-20T09:44:31.426Z,37.37
2019-04-20T09:45:37.084Z,37.87
2019-04-20T09:46:30.936Z,37.47
2019-04-20T09:47:36.624Z,36.27
2019-04-20T09:48:34.715Z,36.36
2019-04-20T09:49:40.247Z,35.77
2019-04-20T09:50:47.513Z,37.46
2019-04-20T09:51:46.246Z,36.35
2019-04-20T09:52:46.522Z,36.45
2019-04-20T09:53:39.015Z,36.65
2019-04-20T09:54:48.245Z,35.14
2019-04-20T09:55:46.850Z,35.55
2019-04-20T09:56:39.622Z,36.75
2019-04-20T09:57:43.902Z,37.55
2019-04-20T09:58:52.094Z,36.95
2019-04-20T09:59:42.965Z,36.33
2019-04-20T10:00:43.755Z,35.73
2019-04-20T10:01:35.120Z,34.51
2019-04-20T10:02:31.510Z,33.98
2019-04-20T10:03:29.057Z,31.56
2019-04-20T10:04:26.958Z,32.53
2019-04-20T10:05:27.405Z,30.71
2019-04-20T10:06:30.701Z,30.69
2019-04-20T10:07:32.529Z,31.07
2019-04-20T10:08:29.263Z,29.46
2019-04-20T10:09:32.608Z,29.03
2019-04-20T10:10:35.068Z,28.92
2019-04-20T10:11:27.854Z,29.01
2019-04-20T10:12:26.852Z,27.11
2019-04-20T10:13:27.186Z,28.20
2019-04-20T10:14:27.006Z,27.37
2019-04-20T10:15:29.388Z,26.18
2019-04-20T10:16:26.803Z,26.47
2019-04-20T10:17:29.863Z,26.94
2019-04-20T10:18:27.971Z,24.64
2019-04-20T10:19:32.458Z,25.13
2019-04-20T10:20:31.840Z,26.31
2019-04-20T10:21:27.786Z,25.70
2019-04-20T10:22:26.886Z,25.97
2019-04-20T10:23:26.899Z,24.18
2019-04-20T10:24:26.716Z,23.96
2019-04-20T10:25:26.741Z,22.88
2019-04-20T10:26:27.034Z,23.46
2019-04-20T10:27:26.696Z,23.55
2019-04-20T10:28:27.677Z,22.74
2019-04-20T10:29:27.904Z,21.74
2019-04-20T10:30:26.671Z,21.44
2019-04-20T10:31:26.639Z,20.73
2019-04-20T10:32:34.242Z,20.62
2019-04-20T10:33:27.893Z,20.70
2019-04-20T10:34:26.602Z,20.98
2019-04-20T10:35:27.636Z,20.57
2019-04-20T10:36:27.786Z,18.88
2019-04-20T10:37:27.237Z,18.48
2019-04-20T10:38:27.600Z,16.51
2019-04-20T10:39:26.682Z,17.18
2019-04-20T10:40:37.851Z,17.46
2019-04-20T10:41:37.265Z,16.27
2019-04-20T10:42:28.100Z,16.56
2019-04-20T10:43:26.523Z,16.94
2019-04-20T10:44:27.167Z,16.36
2019-04-20T10:45:26.839Z,17.54
2019-04-20T10:46:26.911Z,16.37
2019-04-20T10:47:27.309Z,16.27
2019-04-20T10:48:26.942Z,16.47
2019-04-20T10:49:27.144Z,16.06
2019-04-20T10:50:27.162Z,17.74
2019-04-20T10:51:26.459Z,16.36
2019-04-20T10:52:27.745Z,16.36
2019-04-20T10:53:26.418Z,16.45
2019-04-20T10:54:26.901Z,16.06
2019-04-20T10:55:27.263Z,15.66
2019-04-20T10:56:27.521Z,15.47
2019-04-20T10:57:27.794Z,15.45
2019-04-20T10:58:27.440Z,14.86
2019-04-20T10:59:27.647Z,15.25
2019-04-20T11:00:26.364Z,15.25
2019-04-20T11:01:27.457Z,14.66
2019-04-20T11:02:27.680Z,14.45
2019-04-20T11:03:26.740Z,14.84
2019-04-20T11:04:26.405Z,13.85
2019-04-20T11:05:26.572Z,13.17
2019-04-20T11:06:26.877Z,13.65
2019-04-20T11:07:26.511Z,14.42
2019-04-20T11:08:26.547Z,13.34
2019-04-20T11:09:26.880Z,11.98
2019-04-20T11:10:29.316Z,11.79
2019-04-20T11:11:30.057Z,12.08
2019-04-20T11:12:26.350Z,12.48
2019-04-20T11:13:27.591Z,12.49
2019-04-20T11:14:31.396Z,12.88
2019-04-20T11:15:28.238Z,11.72
2019-04-20T11:16:26.465Z,12.12
2019-04-20T11:17:29.775Z,13.01
2019-04-20T11:18:27.365Z,13.30
2019-04-20T11:19:27.403Z,13.49
2019-04-20T11:20:27.364Z,12.51
2019-04-20T11:21:26.306Z,11.62
2019-04-20T11:22:26.307Z,12.11
2019-04-20T11:23:26.614Z,12.40
2019-04-20T11:24:26.155Z,12.38
2019-04-20T11:25:26.255Z,11.89
2019-04-20T11:26:26.477Z,11.79
2019-04-20T11:27:26.104Z,12.37
2019-04-20T11:28:26.264Z,10.90
2019-04-20T11:29:26.449Z,10.80
2019-04-20T11:30:26.114Z,10.41
2019-04-20T11:31:35.610Z,11.37
2019-04-20T11:32:28.284Z,10.69
2019-04-20T11:33:26.042Z,11.47
2019-04-20T11:34:31.567Z,11.56
2019-04-20T11:35:33.876Z,11.45
2019-04-20T11:36:27.439Z,11.06
2019-04-20T11:37:26.827Z,10.77
2019-04-20T11:38:26.191Z,11.05
2019-04-20T11:39:27.134Z,10.66
2019-04-20T11:40:26.671Z,11.04
2019-04-20T11:41:29.135Z,10.46
2019-04-20T11:42:27.727Z,10.46
2019-04-20T11:43:26.091Z,10.94
2019-04-20T11:44:29.415Z,10.75
2019-04-20T11:45:26.746Z,10.46
2019-04-20T11:46:26.965Z,10.56
2019-04-20T11:47:25.942Z,10.85
2019-04-20T11:48:25.918Z,10.35
2019-04-20T11:49:25.916Z,10.74
2019-04-20T11:50:27.397Z,9.95
2019-04-20T11:51:25.890Z,9.96
2019-04-20T11:52:27.022Z,10.44
2019-04-20T11:53:26.900Z,10.23
2019-04-20T11:54:26.384Z,10.72
2019-04-20T11:55:26.618Z,9.36
2019-04-20T11:56:31.475Z,9.27
2019-04-20T11:57:27.184Z,10.63
2019-04-20T11:58:26.159Z,10.72
2019-04-20T11:59:27.261Z,9.94
2019-04-20T12:00:25.842Z,9.25
2019-04-20T12:01:30.200Z,9.94
2019-04-20T12:02:32.154Z,10.15
2019-04-20T12:03:35.425Z,10.15
2019-04-20T12:04:40.400Z,10.72
2019-04-20T12:05:35.621Z,9.84
2019-04-20T12:06:26.775Z,10.13
2019-04-20T12:07:26.807Z,10.02
2019-04-20T12:08:27.069Z,10.31
2019-04-20T12:09:26.280Z,9.15
2019-04-20T12:10:27.791Z,9.24
2019-04-20T12:11:33.960Z,10.01
2019-04-20T12:12:35.220Z,9.63
2019-04-20T12:13:26.937Z,9.81
2019-04-20T12:14:25.713Z,9.53
2019-04-20T12:15:26.603Z,9.34
2019-04-20T12:16:25.800Z,9.16
2019-04-20T12:17:26.004Z,10.02
2019-04-20T12:18:25.671Z,10.30
2019-04-20T12:19:26.915Z,9.14
2019-04-20T12:20:26.912Z,9.72
2019-04-20T12:21:26.493Z,10.02
2019-04-20T12:22:26.216Z,10.21
2019-04-20T12:23:26.483Z,10.80
2019-04-20T12:24:25.637Z,10.72
2019-04-20T12:25:25.991Z,11.02
2019-04-20T12:26:26.880Z,10.63
2019-04-20T12:27:26.884Z,10.63
2019-04-20T12:28:25.613Z,11.30
2019-04-20T12:29:25.874Z,10.43
2019-04-20T12:30:25.910Z,10.53
2019-04-20T12:31:27.569Z,10.90
2019-04-20T12:32:27.112Z,10.71
2019-04-20T12:33:26.548Z,9.94
2019-04-20T12:34:26.471Z,9.74
2019-04-20T12:35:26.487Z,10.03
2019-04-20T12:36:26.029Z,10.23
2019-04-20T12:37:25.527Z,10.05
2019-04-20T12:38:25.513Z,10.72
2019-04-20T12:39:26.913Z,11.89
2019-04-20T12:40:25.898Z,10.15
2019-04-20T12:41:34.452Z,10.44
2019-04-20T12:42:26.465Z,11.41
2019-04-20T12:43:25.596Z,11.03
2019-04-20T12:44:25.844Z,10.66
2019-04-20T12:45:25.945Z,10.85
2019-04-20T12:46:26.780Z,11.34
2019-04-20T12:47:25.788Z,12.03
2019-04-20T12:48:25.942Z,12.13
2019-04-20T12:49:25.493Z,11.75
2019-04-20T12:50:25.653Z,11.75
2019-04-20T12:51:33.930Z,13.11
2019-04-20T12:52:26.363Z,11.75
2019-04-20T12:53:26.518Z,12.15
2019-04-20T12:54:25.346Z,12.74
2019-04-20T12:55:26.400Z,13.83
2019-04-20T12:56:26.523Z,13.65
2019-04-20T12:57:25.308Z,13.67
2019-04-20T12:58:26.325Z,13.87
2019-04-20T12:59:25.595Z,13.78
2019-04-20T13:00:25.651Z,14.75
2019-04-20T13:01:25.847Z,14.55
2019-04-20T13:02:25.271Z,13.65
2019-04-20T13:03:25.618Z,13.65
2019-04-20T13:04:25.235Z,13.73
2019-04-20T13:05:25.578Z,13.83
2019-04-20T13:06:25.820Z,13.24
2019-04-20T13:07:25.215Z,13.53
2019-04-20T13:08:31.830Z,13.54
2019-04-20T13:09:26.426Z,12.37
2019-04-20T13:10:25.469Z,13.74
2019-04-20T13:11:25.171Z,12.96
2019-04-20T13:12:27.468Z,12.87
2019-04-20T13:13:26.153Z,13.55
2019-04-20T13:14:26.302Z,13.38
2019-04-20T13:15:26.457Z,13.78